Time;durP1;ratioP1;P1;durP2;ratioP2;P2;SDS_P1;SDS_P2;PMS_P1;PMS_P2;Temp;Humidity;BMP_temperature;BMP_pressure;BME280_temperature;BME280_humidity;BME280_pressure;Samples;Min_cycle;Max_cycle;Signal;HPM_P1;HPM_P2
2023/10/12 00:01:14;;;;;;;9.40;4.45;;;;;;;;;;5057431;28;20409;-65
2023/10/12 00:03:41;;;;;;;13.27;4.95;;;;;;;;;;5057638;28;20447;-65
2023/10/12 00:06:13;;;;;;;11.07;4.80;;;;;;;;;;5053821;28;20512;-64
2023/10/12 00:08:41;;;;;;;15.15;5.07;;;;;;;;;;5062620;28;20434;-65
2023/10/12 00:11:08;;;;;;;14.02;5.00;;;;;;;;;;5062452;28;20422;-65
2023/10/12 00:13:41;;;;;;;11.65;4.82;;;;;;;;;;5058636;28;20838;-65
2023/10/12 00:16:09;;;;;;;12.00;4.85;;;;;;;;;;5058155;28;20416;-65
2023/10/12 00:18:38;;;;;;;11.00;4.80;;;;;;;;;;5058271;28;20961;-65
2023/10/12 00:21:14;;;;;;;10.43;5.15;;;;;;;;;;5062305;28;20417;-65
2023/10/12 00:23:43;;;;;;;10.68;4.68;;;;;;;;;;5058743;28;20819;-65
2023/10/12 00:26:11;;;;;;;15.80;4.87;;;;;;;;;;5053810;28;20413;-65
2023/10/12 00:28:38;;;;;;;14.23;5.10;;;;;;;;;;5060234;28;20427;-64
2023/10/12 00:31:12;;;;;;;11.75;5.00;;;;;;;;;;5071669;28;20502;-65
2023/10/12 00:33:39;;;;;;;9.73;4.80;;;;;;;;;;5068739;28;20408;-65
2023/10/12 00:36:19;;;;;;;9.68;4.57;;;;;;;;;;5067306;28;20418;-65
2023/10/12 00:38:48;;;;;;;11.67;4.93;;;;;;;;;;5057132;28;20451;-65
2023/10/12 00:41:17;;;;;;;10.73;4.85;;;;;;;;;;5053993;28;20406;-64
2023/10/12 00:43:49;;;;;;;12.80;5.43;;;;;;;;;;5063115;28;20420;-65
2023/10/12 00:46:39;;;;;;;11.90;4.90;;;;;;;;;;5067310;28;20830;-65
2023/10/12 00:49:17;;;;;;;11.13;5.25;;;;;;;;;;5064624;28;20502;-65
2023/10/12 00:51:49;;;;;;;12.03;4.83;;;;;;;;;;5064561;28;20447;-65
2023/10/12 00:54:26;;;;;;;14.50;5.00;;;;;;;;;;5064240;28;20436;-64
2023/10/12 00:56:55;;;;;;;11.05;4.72;;;;;;;;;;5068436;28;20914;-64
2023/10/12 00:59:22;;;;;;;11.23;5.25;;;;;;;;;;5064825;28;20420;-64
2023/10/12 01:01:49;;;;;;;14.52;5.10;;;;;;;;;;5064946;28;20486;-65
2023/10/12 01:04:16;;;;;;;13.75;5.10;;;;;;;;;;5060504;28;20413;-64
2023/10/12 01:06:47;;;;;;;12.35;4.93;;;;;;;;;;5062832;28;20417;-64
2023/10/12 01:09:20;;;;;;;11.55;5.22;;;;;;;;;;5077168;28;20451;-64
2023/10/12 01:11:58;;;;;;;9.35;5.28;;;;;;;;;;5061820;28;20888;-65
2023/10/12 01:14:28;;;;;;;11.35;5.30;;;;;;;;;;5061107;28;20417;-64
2023/10/12 01:16:58;;;;;;;10.97;5.53;;;;;;;;;;5064642;28;20409;-64
2023/10/12 01:19:30;;;;;;;10.77;5.78;;;;;;;;;;5057178;28;20432;-64
2023/10/12 01:22:05;;;;;;;13.15;5.50;;;;;;;;;;5052430;28;20492;-64
2023/10/12 01:24:32;;;;;;;14.07;5.70;;;;;;;;;;5054772;28;20417;-64
2023/10/12 01:26:59;;;;;;;10.73;5.28;;;;;;;;;;5062882;28;20411;-64
2023/10/12 01:29:26;;;;;;;14.90;5.57;;;;;;;;;;5059889;28;20416;-64
2023/10/12 01:32:20;;;;;;;11.98;5.82;;;;;;;;;;5067588;28;20838;-64
2023/10/12 01:34:48;;;;;;;11.93;5.40;;;;;;;;;;5052757;28;20497;-65
2023/10/12 01:37:22;;;;;;;14.07;5.70;;;;;;;;;;5060407;28;20459;-64
2023/10/12 01:39:56;;;;;;;11.60;5.78;;;;;;;;;;5060295;28;20428;-65
2023/10/12 01:42:25;;;;;;;12.00;5.37;;;;;;;;;;5061042;28;21022;-64
2023/10/12 01:44:53;;;;;;;11.13;5.65;;;;;;;;;;5062284;28;20417;-64
2023/10/12 01:47:20;;;;;;;13.32;6.18;;;;;;;;;;5064852;28;20450;-64
2023/10/12 01:49:49;;;;;;;9.15;5.65;;;;;;;;;;5068152;28;20886;-65
2023/10/12 01:52:19;;;;;;;11.18;5.75;;;;;;;;;;5063295;28;20492;-64
2023/10/12 01:54:49;;;;;;;10.95;5.63;;;;;;;;;;5070787;28;20411;-64
2023/10/12 01:57:26;;;;;;;13.02;6.45;;;;;;;;;;5059853;28;20412;-64
2023/10/12 01:59:54;;;;;;;11.60;6.10;;;;;;;;;;5059149;28;20941;-64
2023/10/12 02:02:21;;;;;;;14.07;6.22;;;;;;;;;;5062877;28;20473;-64
2023/10/12 02:04:48;;;;;;;15.40;6.30;;;;;;;;;;5064572;28;20435;-64
2023/10/12 02:07:15;;;;;;;11.38;5.88;;;;;;;;;;5056776;28;20425;-64
2023/10/12 02:09:44;;;;;;;13.18;6.78;;;;;;;;;;5062602;28;20820;-64
2023/10/12 02:12:13;;;;;;;12.38;6.93;;;;;;;;;;5059145;28;20491;-64
2023/10/12 02:14:40;;;;;;;13.85;7.80;;;;;;;;;;5066157;28;20416;-64
2023/10/12 02:17:08;;;;;;;14.05;8.63;;;;;;;;;;5055324;28;20407;-64
2023/10/12 02:19:41;;;;;;;17.13;8.98;;;;;;;;;;5060897;28;20424;-64
2023/10/12 02:22:18;;;;;;;13.45;8.95;;;;;;;;;;5063466;28;20770;-64
2023/10/12 02:24:51;;;;;;;17.17;9.88;;;;;;;;;;5063001;28;20416;-64
2023/10/12 02:27:18;;;;;;;16.17;10.55;;;;;;;;;;5059803;28;20409;-65
2023/10/12 02:29:49;;;;;;;18.30;10.75;;;;;;;;;;5063165;28;20452;-65
2023/10/12 02:32:20;;;;;;;17.73;11.52;;;;;;;;;;5063493;28;20408;-64
2023/10/12 02:34:51;;;;;;;18.02;11.63;;;;;;;;;;5059349;28;20896;-65
2023/10/12 02:37:21;;;;;;;17.48;11.80;;;;;;;;;;5063337;28;20412;-65
2023/10/12 02:39:53;;;;;;;22.13;13.60;;;;;;;;;;5070950;28;20434;-64
2023/10/12 02:42:22;;;;;;;24.70;14.90;;;;;;;;;;5055780;28;20411;-64
2023/10/12 02:45:15;;;;;;;23.92;16.23;;;;;;;;;;5051443;28;20409;-64
2023/10/12 02:47:45;;;;;;;27.48;17.55;;;;;;;;;;5054786;28;20417;-64
2023/10/12 02:50:21;;;;;;;26.55;18.20;;;;;;;;;;5058221;28;20485;-64
2023/10/12 02:52:51;;;;;;;28.25;18.50;;;;;;;;;;5056611;28;20411;-64
2023/10/12 02:55:26;;;;;;;27.70;18.48;;;;;;;;;;5070473;28;20414;-64
2023/10/12 02:57:56;;;;;;;29.90;17.67;;;;;;;;;;5064329;28;20419;-64
2023/10/12 03:00:30;;;;;;;24.23;16.77;;;;;;;;;;5062036;28;20432;-64
2023/10/12 03:03:19;;;;;;;23.92;15.80;;;;;;;;;;5060778;28;20453;-64
2023/10/12 03:05:47;;;;;;;22.38;14.70;;;;;;;;;;5057386;28;20401;-64
2023/10/12 03:08:14;;;;;;;19.65;13.88;;;;;;;;;;5062003;28;20418;-64
2023/10/12 03:11:03;;;;;;;22.70;13.90;;;;;;;;;;5055960;28;20405;-65
2023/10/12 03:13:35;;;;;;;22.10;14.65;;;;;;;;;;5058766;28;20908;-64
2023/10/12 03:16:09;;;;;;;25.03;14.90;;;;;;;;;;5062779;28;20408;-64
2023/10/12 03:18:36;;;;;;;26.98;14.48;;;;;;;;;;5053107;28;20458;-65
2023/10/12 03:21:04;;;;;;;23.38;13.93;;;;;;;;;;5060884;28;20427;-64
2023/10/12 03:23:34;;;;;;;20.10;13.63;;;;;;;;;;5068733;28;20948;-64
2023/10/12 03:26:05;;;;;;;21.75;15.23;;;;;;;;;;5070460;28;20529;-64
2023/10/12 03:28:43;;;;;;;26.33;16.17;;;;;;;;;;5061162;28;20588;-64
2023/10/12 03:31:21;;;;;;;27.42;15.90;;;;;;;;;;5083385;28;20536;-64
2023/10/12 03:33:53;;;;;;;22.95;16.30;;;;;;;;;;5057727;28;20496;-65
2023/10/12 03:36:23;;;;;;;29.13;17.88;;;;;;;;;;5065668;28;20548;-64
2023/10/12 03:39:07;;;;;;;28.60;18.03;;;;;;;;;;5064329;28;20538;-64
2023/10/12 03:41:54;;;;;;;27.73;17.85;;;;;;;;;;5058128;28;20470;-64
2023/10/12 03:44:33;;;;;;;29.95;18.52;;;;;;;;;;5071947;28;20428;-64
2023/10/12 03:47:04;;;;;;;27.45;17.88;;;;;;;;;;5062295;28;20448;-64
2023/10/12 03:49:44;;;;;;;28.42;18.73;;;;;;;;;;5062411;28;20532;-64
2023/10/12 03:52:14;;;;;;;26.70;18.67;;;;;;;;;;5053739;28;20462;-64
2023/10/12 03:54:55;;;;;;;27.30;18.25;;;;;;;;;;5061328;28;20547;-64
2023/10/12 03:57:30;;;;;;;30.00;17.73;;;;;;;;;;5067119;28;20496;-64
2023/10/12 04:00:24;;;;;;;27.48;17.75;;;;;;;;;;5054927;28;20868;-64
2023/10/12 04:02:58;;;;;;;26.50;17.45;;;;;;;;;;5053467;28;20535;-64
2023/10/12 04:05:46;;;;;;;26.48;17.88;;;;;;;;;;5058214;28;20458;-64
2023/10/12 04:16:39;;;;;;;28.23;16.88;;;;;;;;;;5064914;28;20889;-64
2023/10/12 04:19:06;;;;;;;27.65;17.42;;;;;;;;;;5058103;28;20865;-64
2023/10/12 04:21:35;;;;;;;27.23;17.27;;;;;;;;;;5079413;28;20792;-64
2023/10/12 04:27:06;;;;;;;30.48;17.83;;;;;;;;;;5068546;28;20453;-64
2023/10/12 04:29:38;;;;;;;27.98;18.00;;;;;;;;;;5080022;28;20523;-64
2023/10/12 04:32:15;;;;;;;30.00;19.15;;;;;;;;;;5069486;28;20402;-64
2023/10/12 04:34:48;;;;;;;28.63;18.75;;;;;;;;;;5064442;28;20931;-64
2023/10/12 04:37:22;;;;;;;26.02;18.33;;;;;;;;;;5060951;28;20956;-64
2023/10/12 04:39:56;;;;;;;30.08;18.98;;;;;;;;;;5064579;28;20466;-64
2023/10/12 04:42:24;;;;;;;27.10;18.58;;;;;;;;;;5064620;28;20461;-64
2023/10/12 04:45:02;;;;;;;27.53;18.30;;;;;;;;;;5064632;28;20410;-64
2023/10/12 04:47:30;;;;;;;27.30;19.20;;;;;;;;;;5064646;28;20483;-64
2023/10/12 04:49:57;;;;;;;29.65;20.00;;;;;;;;;;5060606;28;20839;-64
2023/10/12 04:52:36;;;;;;;28.75;19.83;;;;;;;;;;5064645;28;20435;-65
2023/10/12 04:58:09;;;;;;;33.58;19.65;;;;;;;;;;5051451;28;20594;-64
2023/10/12 05:00:48;;;;;;;33.47;19.50;;;;;;;;;;5060373;28;20918;-64
2023/10/12 05:03:25;;;;;;;29.52;19.35;;;;;;;;;;5062621;28;20430;-64
2023/10/12 05:05:57;;;;;;;32.40;19.52;;;;;;;;;;5061022;28;20420;-64
2023/10/12 05:08:24;;;;;;;31.00;18.23;;;;;;;;;;5063443;28;20999;-65
2023/10/12 05:10:51;;;;;;;28.35;18.23;;;;;;;;;;5061401;28;20411;-65
2023/10/12 05:13:21;;;;;;;32.42;18.75;;;;;;;;;;5061072;28;20967;-64
2023/10/12 05:15:56;;;;;;;25.90;16.85;;;;;;;;;;5061648;28;20432;-63
2023/10/12 05:18:23;;;;;;;25.27;16.55;;;;;;;;;;5061826;28;20421;-63
2023/10/12 05:20:50;;;;;;;26.80;17.40;;;;;;;;;;5064483;28;20517;-64
2023/10/12 05:23:18;;;;;;;30.33;16.83;;;;;;;;;;5064083;28;20414;-63
2023/10/12 05:25:53;;;;;;;24.90;16.33;;;;;;;;;;5064671;28;20419;-64
2023/10/12 05:28:27;;;;;;;26.23;15.77;;;;;;;;;;5060367;28;20914;-64
2023/10/12 05:30:59;;;;;;;24.63;16.00;;;;;;;;;;5060289;28;20432;-64
2023/10/12 05:33:38;;;;;;;22.97;15.80;;;;;;;;;;5056769;28;20822;-64
2023/10/12 05:36:05;;;;;;;25.65;15.88;;;;;;;;;;5064547;28;20416;-64
2023/10/12 05:38:35;;;;;;;29.93;16.73;;;;;;;;;;5067283;28;20423;-64
2023/10/12 05:41:04;;;;;;;24.95;15.95;;;;;;;;;;5067551;28;20450;-64
2023/10/12 05:43:33;;;;;;;26.67;16.70;;;;;;;;;;5059606;28;21268;-64
2023/10/12 05:46:04;;;;;;;28.52;16.63;;;;;;;;;;5059821;28;20444;-64
2023/10/12 05:48:33;;;;;;;27.70;16.90;;;;;;;;;;5059348;28;20572;-64
2023/10/12 05:51:00;;;;;;;27.25;17.73;;;;;;;;;;5052328;28;20400;-64
2023/10/12 05:53:28;;;;;;;29.65;17.67;;;;;;;;;;5058002;28;20411;-64
2023/10/12 05:55:57;;;;;;;29.80;18.13;;;;;;;;;;5070987;28;20410;-64
2023/10/12 05:58:24;;;;;;;28.58;17.98;;;;;;;;;;5051978;28;20482;-64
2023/10/12 06:00:53;;;;;;;32.50;18.70;;;;;;;;;;5051782;28;20787;-64
2023/10/12 06:03:22;;;;;;;28.42;18.60;;;;;;;;;;5051806;28;20504;-64
2023/10/12 06:05:50;;;;;;;34.72;18.20;;;;;;;;;;5051907;28;20417;-64
2023/10/12 06:08:18;;;;;;;27.55;17.05;;;;;;;;;;5051258;28;20452;-64
2023/10/12 06:10:45;;;;;;;29.27;18.10;;;;;;;;;;5051509;28;20500;-64
2023/10/12 06:13:13;;;;;;;30.33;17.93;;;;;;;;;;5051389;28;20471;-64
2023/10/12 06:15:42;;;;;;;31.15;18.67;;;;;;;;;;5054113;28;20419;-64
2023/10/12 06:18:10;;;;;;;27.08;17.85;;;;;;;;;;5059251;28;20419;-64
2023/10/12 06:20:42;;;;;;;31.63;16.73;;;;;;;;;;5060670;28;20983;-64
2023/10/12 06:23:13;;;;;;;31.73;18.33;;;;;;;;;;5063267;28;20458;-64
2023/10/12 06:25:43;;;;;;;29.70;18.33;;;;;;;;;;5065747;28;20454;-64
2023/10/12 06:28:17;;;;;;;28.17;17.08;;;;;;;;;;5054535;28;20500;-64
2023/10/12 06:30:44;;;;;;;28.92;18.27;;;;;;;;;;5051340;28;20404;-64
2023/10/12 06:33:14;;;;;;;28.30;17.27;;;;;;;;;;5050997;28;20413;-64
2023/10/12 06:35:58;;;;;;;25.60;16.75;;;;;;;;;;5050906;28;20452;-64
2023/10/12 06:38:36;;;;;;;24.63;16.50;;;;;;;;;;5051219;28;20471;-64
2023/10/12 06:41:58;;;;;;;27.55;17.48;;;;;;;;;;5050235;28;20925;-64
2023/10/12 06:43:57;;;;;;;27.88;17.33;;;;;;;;;;5061623;28;20790;-64
2023/10/12 06:46:27;;;;;;;27.85;17.33;;;;;;;;;;5063225;28;20463;-64
2023/10/12 06:49:00;;;;;;;27.80;18.05;;;;;;;;;;5059432;28;20445;-64
2023/10/12 06:51:29;;;;;;;27.60;17.20;;;;;;;;;;5050673;28;20455;-64
2023/10/12 06:54:06;;;;;;;28.10;16.65;;;;;;;;;;5059195;28;21072;-64
2023/10/12 06:56:38;;;;;;;29.40;17.80;;;;;;;;;;5057055;28;20439;-64
2023/10/12 06:59:09;;;;;;;29.08;17.38;;;;;;;;;;5058517;28;20465;-64
2023/10/12 07:01:39;;;;;;;34.00;18.90;;;;;;;;;;5058396;28;20900;-64
2023/10/12 07:04:13;;;;;;;28.25;17.88;;;;;;;;;;5058263;28;20440;-64
2023/10/12 07:06:56;;;;;;;26.08;17.25;;;;;;;;;;5057977;28;20493;-64
2023/10/12 07:09:27;;;;;;;34.08;17.95;;;;;;;;;;5058428;28;20438;-64
2023/10/12 07:11:54;;;;;;;30.85;17.05;;;;;;;;;;5058225;28;20438;-64
2023/10/12 07:14:30;;;;;;;31.30;16.40;;;;;;;;;;5058573;28;20471;-64
2023/10/12 07:17:01;;;;;;;27.52;16.58;;;;;;;;;;5055989;28;20894;-64
2023/10/12 07:19:28;;;;;;;28.13;16.30;;;;;;;;;;5061390;28;20502;-64
2023/10/12 07:22:01;;;;;;;26.40;15.63;;;;;;;;;;5057900;28;20493;-64
2023/10/12 07:24:29;;;;;;;26.75;16.38;;;;;;;;;;5067098;28;20469;-64
2023/10/12 07:27:09;;;;;;;24.83;15.20;;;;;;;;;;5062439;28;20504;-64
2023/10/12 07:29:37;;;;;;;27.17;15.32;;;;;;;;;;5058375;28;20975;-64
2023/10/12 07:32:16;;;;;;;25.38;15.80;;;;;;;;;;5064475;28;20943;-64
2023/10/12 07:34:45;;;;;;;24.65;15.55;;;;;;;;;;5061723;28;20441;-64
2023/10/12 07:37:14;;;;;;;23.27;15.35;;;;;;;;;;5059860;28;20456;-64
2023/10/12 07:39:42;;;;;;;24.65;15.35;;;;;;;;;;5054356;28;20950;-64
2023/10/12 07:42:12;;;;;;;22.92;14.70;;;;;;;;;;5059052;28;20557;-64
2023/10/12 07:44:41;;;;;;;28.77;14.85;;;;;;;;;;5062456;28;20451;-64
2023/10/12 07:47:18;;;;;;;24.27;14.57;;;;;;;;;;5058449;28;20422;-64
2023/10/12 07:49:50;;;;;;;22.30;15.23;;;;;;;;;;5058881;28;20465;-64
2023/10/12 07:52:38;;;;;;;24.90;15.13;;;;;;;;;;5059441;28;20469;-64
2023/10/12 07:55:09;;;;;;;24.15;15.18;;;;;;;;;;5062334;28;20475;-64
2023/10/12 07:57:37;;;;;;;24.90;14.75;;;;;;;;;;5054132;28;20938;-64
2023/10/12 08:00:34;;;;;;;25.45;15.40;;;;;;;;;;5062334;28;20921;-64
2023/10/12 08:06:00;;;;;;;23.65;14.98;;;;;;;;;;5048394;28;20448;-64
2023/10/12 08:08:35;;;;;;;24.50;14.93;;;;;;;;;;5054059;28;20409;-64
2023/10/12 08:11:09;;;;;;;25.83;14.63;;;;;;;;;;5057591;28;20495;-64
2023/10/12 08:13:39;;;;;;;29.08;15.35;;;;;;;;;;5061718;28;20463;-64
2023/10/12 08:16:14;;;;;;;23.25;14.57;;;;;;;;;;5065929;28;20456;-63
2023/10/12 08:21:31;;;;;;;22.80;14.40;;;;;;;;;;5065357;28;20612;-65
2023/10/12 08:24:09;;;;;;;23.58;14.00;;;;;;;;;;5079387;28;20454;-65
2023/10/12 08:26:47;;;;;;;21.08;13.43;;;;;;;;;;5065825;28;20475;-65
2023/10/12 08:29:21;;;;;;;22.33;13.45;;;;;;;;;;5060274;28;20454;-66
2023/10/12 08:31:48;;;;;;;28.07;14.13;;;;;;;;;;5064060;28;20517;-65
2023/10/12 08:34:41;;;;;;;22.70;14.07;;;;;;;;;;5061894;28;20774;-64
2023/10/12 08:37:19;;;;;;;23.70;14.02;;;;;;;;;;5061805;28;20448;-65
2023/10/12 08:39:51;;;;;;;21.35;13.55;;;;;;;;;;5061378;28;20848;-65
2023/10/12 08:42:37;;;;;;;23.35;12.82;;;;;;;;;;5061454;28;20633;-65
2023/10/12 08:45:09;;;;;;;18.50;12.48;;;;;;;;;;5059852;28;20417;-66
2023/10/12 08:47:44;;;;;;;19.98;12.90;;;;;;;;;;5061191;28;20405;-65
2023/10/12 08:53:07;;;;;;;22.00;12.55;;;;;;;;;;5102592;27;20380;-63
2023/10/12 08:55:36;;;;;;;20.27;12.93;;;;;;;;;;5096670;28;20850;-67
2023/10/12 08:58:11;;;;;;;21.92;13.77;;;;;;;;;;5085467;28;20515;-63
2023/10/12 09:00:42;;;;;;;21.13;12.35;;;;;;;;;;5086326;28;20964;-61
2023/10/12 09:03:24;;;;;;;23.80;12.88;;;;;;;;;;5093599;28;20454;-63
2023/10/12 09:05:52;;;;;;;19.57;12.43;;;;;;;;;;5091954;28;20586;-64
2023/10/12 09:11:13;;;;;;;22.52;11.95;;;;;;;;;;5088994;28;20484;-64
2023/10/12 09:13:45;;;;;;;18.63;11.75;;;;;;;;;;5091334;28;20482;-63
2023/10/12 09:16:14;;;;;;;23.88;12.60;;;;;;;;;;5086775;28;20407;-65
2023/10/12 09:18:44;;;;;;;24.67;11.90;;;;;;;;;;5093427;28;20449;-64
2023/10/12 09:21:19;;;;;;;19.92;12.30;;;;;;;;;;5087140;28;20399;-64
2023/10/12 09:23:50;;;;;;;20.07;12.50;;;;;;;;;;5091627;28;20451;-64
2023/10/12 09:26:21;;;;;;;20.15;12.15;;;;;;;;;;5089532;28;20486;-64
2023/10/12 09:29:07;;;;;;;20.25;12.13;;;;;;;;;;5089714;28;20446;-64
2023/10/12 09:32:10;;;;;;;19.60;12.57;;;;;;;;;;5094703;28;20501;-63
2023/10/12 09:35:03;;;;;;;27.25;15.82;;;;;;;;;;5092367;28;20928;-64
2023/10/12 09:37:33;;;;;;;20.58;11.90;;;;;;;;;;5095361;28;20573;-64
2023/10/12 09:40:05;;;;;;;20.50;11.93;;;;;;;;;;5097777;28;20485;-64
2023/10/12 09:42:34;;;;;;;20.10;11.63;;;;;;;;;;5094056;28;20409;-63
2023/10/12 09:45:10;;;;;;;20.13;12.10;;;;;;;;;;5091022;28;20831;-63
2023/10/12 09:47:55;;;;;;;20.70;11.32;;;;;;;;;;5089715;28;20405;-63
2023/10/12 09:50:27;;;;;;;22.23;11.90;;;;;;;;;;5091590;28;20933;-64
2023/10/12 09:52:58;;;;;;;19.63;11.50;;;;;;;;;;5093458;28;20917;-63
2023/10/12 09:55:32;;;;;;;19.88;10.38;;;;;;;;;;5089561;28;20411;-62
2023/10/12 09:58:06;;;;;;;17.08;11.05;;;;;;;;;;5093970;28;20414;-62
2023/10/12 10:03:17;;;;;;;18.30;10.25;;;;;;;;;;5083168;28;20406;-62
2023/10/12 10:05:52;;;;;;;16.63;10.60;;;;;;;;;;5080692;28;20469;-62
2023/10/12 10:08:22;;;;;;;17.77;9.13;;;;;;;;;;5078582;28;20510;-62
2023/10/12 10:10:57;;;;;;;16.95;10.00;;;;;;;;;;5080769;28;20408;-62
2023/10/12 10:13:41;;;;;;;19.13;9.02;;;;;;;;;;5079242;28;20404;-62
2023/10/12 10:16:10;;;;;;;18.40;9.13;;;;;;;;;;5077794;28;21190;-62
2023/10/12 10:18:46;;;;;;;16.42;9.45;;;;;;;;;;5080012;28;20415;-62
2023/10/12 10:21:15;;;;;;;18.30;9.70;;;;;;;;;;5076461;28;20478;-63
2023/10/12 10:23:48;;;;;;;16.48;9.82;;;;;;;;;;5075464;28;20465;-63
2023/10/12 10:26:22;;;;;;;19.15;9.50;;;;;;;;;;5077695;28;20483;-62
2023/10/12 10:28:55;;;;;;;16.83;9.38;;;;;;;;;;5079751;28;20442;-61
2023/10/12 10:31:26;;;;;;;18.03;9.40;;;;;;;;;;5081521;28;20941;-61
2023/10/12 10:33:57;;;;;;;18.35;9.45;;;;;;;;;;5081349;28;20498;-60
2023/10/12 10:36:25;;;;;;;15.10;8.95;;;;;;;;;;5080459;28;20900;-61
2023/10/12 10:38:54;;;;;;;16.17;8.75;;;;;;;;;;5082055;28;20412;-60
2023/10/12 10:41:38;;;;;;;18.98;9.13;;;;;;;;;;5079639;28;20830;-61
2023/10/12 10:44:08;;;;;;;16.33;9.50;;;;;;;;;;5080041;28;20407;-61
2023/10/12 10:46:40;;;;;;;16.35;9.30;;;;;;;;;;5081613;28;20421;-61
2023/10/12 10:49:09;;;;;;;17.92;9.32;;;;;;;;;;5083653;28;20490;-61
2023/10/12 10:51:41;;;;;;;21.23;10.10;;;;;;;;;;5083742;28;20495;-61
2023/10/12 10:54:17;;;;;;;15.75;9.70;;;;;;;;;;5076907;28;20430;-66
2023/10/12 10:56:48;;;;;;;17.03;10.67;;;;;;;;;;5071588;28;20424;-61
2023/10/12 10:59:18;;;;;;;19.23;10.32;;;;;;;;;;5081647;28;20486;-61
2023/10/12 11:01:48;;;;;;;22.77;10.93;;;;;;;;;;5083767;28;20485;-61
2023/10/12 11:04:36;;;;;;;22.33;10.63;;;;;;;;;;5079578;28;20402;-61
2023/10/12 11:07:04;;;;;;;20.65;11.20;;;;;;;;;;5081252;28;20457;-61
2023/10/12 11:09:54;;;;;;;18.70;10.73;;;;;;;;;;5076203;28;20503;-61
2023/10/12 11:12:21;;;;;;;20.10;10.90;;;;;;;;;;5078929;28;20475;-61
2023/10/12 11:14:58;;;;;;;18.13;10.75;;;;;;;;;;5076974;28;20477;-61
2023/10/12 11:17:26;;;;;;;19.35;10.80;;;;;;;;;;5075977;28;20412;-61
2023/10/12 11:19:53;;;;;;;17.60;10.05;;;;;;;;;;5080111;28;20419;-59
2023/10/12 11:22:20;;;;;;;20.27;10.57;;;;;;;;;;5082308;28;20884;-61
2023/10/12 11:24:48;;;;;;;17.08;10.10;;;;;;;;;;5075570;28;20408;-59
2023/10/12 11:27:32;;;;;;;15.93;9.77;;;;;;;;;;5078220;28;20421;-61
2023/10/12 11:30:00;;;;;;;20.17;9.30;;;;;;;;;;5069641;28;20560;-72
2023/10/12 11:32:28;;;;;;;16.48;9.43;;;;;;;;;;5081924;28;20426;-72
2023/10/12 11:34:59;;;;;;;20.30;9.23;;;;;;;;;;5077392;28;20452;-73
2023/10/12 11:37:28;;;;;;;22.23;11.18;;;;;;;;;;5081391;28;20777;-67
2023/10/12 11:39:57;;;;;;;19.75;9.73;;;;;;;;;;5068842;28;20484;-71
2023/10/12 11:42:32;;;;;;;20.92;10.70;;;;;;;;;;5079154;28;20891;-71
2023/10/12 11:45:07;;;;;;;19.73;10.15;;;;;;;;;;5074998;28;20426;-67
2023/10/12 11:47:38;;;;;;;20.13;10.93;;;;;;;;;;5075380;28;20498;-68
2023/10/12 11:50:09;;;;;;;16.88;10.40;;;;;;;;;;5075800;28;20902;-68
2023/10/12 11:52:37;;;;;;;16.77;9.57;;;;;;;;;;5087838;28;20476;-67
2023/10/12 11:55:06;;;;;;;17.77;9.98;;;;;;;;;;5077114;28;20462;-68
2023/10/12 11:57:35;;;;;;;19.70;10.07;;;;;;;;;;5076669;28;20435;-69
2023/10/12 12:00:18;;;;;;;14.40;9.98;;;;;;;;;;5082589;28;20410;-70
2023/10/12 12:02:45;;;;;;;18.25;10.23;;;;;;;;;;5079028;28;20406;-68
2023/10/12 12:05:12;;;;;;;16.95;10.02;;;;;;;;;;5078735;28;20407;-68
2023/10/12 12:07:39;;;;;;;17.40;10.50;;;;;;;;;;5080324;28;20413;-68
2023/10/12 12:10:07;;;;;;;15.70;11.10;;;;;;;;;;5080474;28;20462;-68
2023/10/12 12:12:38;;;;;;;18.05;10.63;;;;;;;;;;5078232;28;20485;-68
2023/10/12 12:15:06;;;;;;;18.77;11.20;;;;;;;;;;5078808;28;20604;-68
2023/10/12 12:17:35;;;;;;;20.83;11.18;;;;;;;;;;5080423;28;20413;-68
2023/10/12 12:20:05;;;;;;;21.63;11.25;;;;;;;;;;5070225;28;20414;-68
2023/10/12 12:22:42;;;;;;;17.85;10.88;;;;;;;;;;5079569;28;20500;-67
2023/10/12 12:25:21;;;;;;;19.35;11.90;;;;;;;;;;5073045;28;20414;-69
2023/10/12 12:27:49;;;;;;;17.83;11.98;;;;;;;;;;5080098;28;20937;-68
2023/10/12 12:30:27;;;;;;;17.00;10.75;;;;;;;;;;5076921;28;20420;-68
2023/10/12 12:33:00;;;;;;;17.85;11.50;;;;;;;;;;5080709;28;20512;-63
2023/10/12 12:35:27;;;;;;;18.27;12.20;;;;;;;;;;5079277;28;20411;-63
2023/10/12 12:38:00;;;;;;;19.67;12.80;;;;;;;;;;5077164;28;20854;-63
2023/10/12 12:40:30;;;;;;;17.25;12.50;;;;;;;;;;5079198;28;20417;-63
2023/10/12 12:43:00;;;;;;;20.75;12.75;;;;;;;;;;5081168;28;20409;-63
2023/10/12 12:45:30;;;;;;;17.83;12.27;;;;;;;;;;5078756;28;20481;-68
2023/10/12 12:47:57;;;;;;;19.55;12.15;;;;;;;;;;5078024;28;20944;-66
2023/10/12 12:50:28;;;;;;;18.02;12.20;;;;;;;;;;5079494;28;20933;-65
2023/10/12 12:52:55;;;;;;;16.98;12.43;;;;;;;;;;5077855;28;20427;-65
2023/10/12 12:55:27;;;;;;;19.98;12.55;;;;;;;;;;5073763;28;20477;-66
2023/10/12 12:57:56;;;;;;;19.42;12.07;;;;;;;;;;5079298;28;20414;-65
2023/10/12 13:00:24;;;;;;;19.35;12.00;;;;;;;;;;5079941;28;21078;-65
2023/10/12 13:02:52;;;;;;;17.92;12.07;;;;;;;;;;5077359;28;20417;-67
2023/10/12 13:05:19;;;;;;;21.52;12.00;;;;;;;;;;5074119;28;21111;-66
2023/10/12 13:07:47;;;;;;;17.27;12.30;;;;;;;;;;5075202;28;20487;-67
2023/10/12 13:10:14;;;;;;;18.38;12.38;;;;;;;;;;5073934;28;20407;-67
2023/10/12 13:12:41;;;;;;;18.77;11.80;;;;;;;;;;5074424;28;20912;-67
2023/10/12 13:15:09;;;;;;;19.65;12.73;;;;;;;;;;5076849;28;20415;-67
2023/10/12 13:17:38;;;;;;;17.20;11.43;;;;;;;;;;5071821;28;20503;-67
2023/10/12 13:20:06;;;;;;;16.48;11.80;;;;;;;;;;5076373;28;20834;-66
2023/10/12 13:22:33;;;;;;;20.45;12.48;;;;;;;;;;5072634;28;20410;-66
2023/10/12 13:25:00;;;;;;;20.20;11.93;;;;;;;;;;5073898;28;20466;-67
2023/10/12 13:27:29;;;;;;;18.88;11.30;;;;;;;;;;5075857;28;20459;-67
2023/10/12 13:30:00;;;;;;;15.82;11.38;;;;;;;;;;5074146;28;20414;-67
2023/10/12 13:32:27;;;;;;;18.73;11.68;;;;;;;;;;5076375;28;20537;-67
2023/10/12 13:34:57;;;;;;;16.42;11.20;;;;;;;;;;5079810;28;20871;-67
2023/10/12 13:37:30;;;;;;;19.02;11.93;;;;;;;;;;5077099;28;20918;-67
2023/10/12 13:39:57;;;;;;;18.03;11.13;;;;;;;;;;5082650;28;20410;-68
2023/10/12 13:42:25;;;;;;;18.85;11.73;;;;;;;;;;5084338;28;20413;-70
2023/10/12 13:44:52;;;;;;;18.30;11.75;;;;;;;;;;5080055;28;20911;-66
2023/10/12 13:47:19;;;;;;;18.77;11.00;;;;;;;;;;5081859;28;20478;-64
2023/10/12 13:49:46;;;;;;;16.73;12.07;;;;;;;;;;5083991;28;20528;-68
2023/10/12 13:52:14;;;;;;;19.15;12.10;;;;;;;;;;5077551;28;20477;-67
2023/10/12 13:54:45;;;;;;;19.40;12.15;;;;;;;;;;5081337;28;20407;-65
2023/10/12 13:57:14;;;;;;;21.90;12.30;;;;;;;;;;5079644;28;20412;-66
2023/10/12 13:59:45;;;;;;;15.32;11.35;;;;;;;;;;5082685;28;20820;-65
2023/10/12 14:02:13;;;;;;;18.27;11.70;;;;;;;;;;5082616;28;20493;-66
2023/10/12 14:04:40;;;;;;;16.27;11.07;;;;;;;;;;5077826;28;20407;-63
2023/10/12 14:07:09;;;;;;;15.68;10.93;;;;;;;;;;5075759;28;20802;-63
2023/10/12 14:09:39;;;;;;;20.88;11.70;;;;;;;;;;5081331;28;20468;-63
2023/10/12 14:12:06;;;;;;;18.67;11.68;;;;;;;;;;5081305;28;20510;-63
2023/10/12 14:14:33;;;;;;;21.00;11.50;;;;;;;;;;5080921;28;20509;-63
2023/10/12 14:17:04;;;;;;;16.20;10.20;;;;;;;;;;5079580;28;20461;-63
2023/10/12 14:19:31;;;;;;;15.52;10.95;;;;;;;;;;5081631;28;20452;-63
2023/10/12 14:22:00;;;;;;;19.52;11.95;;;;;;;;;;5082480;28;20413;-63
2023/10/12 14:24:27;;;;;;;16.77;11.25;;;;;;;;;;5078395;28;20418;-63
2023/10/12 14:26:58;;;;;;;18.85;11.52;;;;;;;;;;5079771;28;20416;-63
2023/10/12 14:29:25;;;;;;;20.83;11.02;;;;;;;;;;5080255;28;20411;-63
2023/10/12 14:31:54;;;;;;;16.75;10.60;;;;;;;;;;5082900;28;20493;-63
2023/10/12 14:34:21;;;;;;;15.27;10.60;;;;;;;;;;5081949;28;21132;-63
2023/10/12 14:36:49;;;;;;;16.60;10.70;;;;;;;;;;5079617;28;20441;-64
2023/10/12 14:39:22;;;;;;;14.93;9.93;;;;;;;;;;5082305;28;20487;-64
2023/10/12 14:41:50;;;;;;;16.60;9.57;;;;;;;;;;5082036;28;20417;-64
2023/10/12 14:44:19;;;;;;;14.30;9.18;;;;;;;;;;5076763;28;20461;-63
2023/10/12 14:46:49;;;;;;;12.10;8.65;;;;;;;;;;5080174;28;20944;-64
2023/10/12 14:49:16;;;;;;;14.88;8.73;;;;;;;;;;5082619;28;20496;-63
2023/10/12 14:51:43;;;;;;;13.80;8.85;;;;;;;;;;5080615;28;20889;-63
2023/10/12 14:54:10;;;;;;;15.27;8.90;;;;;;;;;;5064859;28;20435;-63
2023/10/12 14:56:39;;;;;;;15.90;9.10;;;;;;;;;;5073134;28;20837;-64
2023/10/12 14:59:11;;;;;;;14.63;9.32;;;;;;;;;;5073805;28;20491;-63
2023/10/12 15:01:39;;;;;;;15.95;9.30;;;;;;;;;;5070201;28;20880;-62
2023/10/12 15:04:07;;;;;;;14.80;9.17;;;;;;;;;;5068658;28;20504;-62
2023/10/12 15:06:34;;;;;;;14.60;8.63;;;;;;;;;;5080050;28;20494;-63
2023/10/12 15:09:03;;;;;;;13.90;9.07;;;;;;;;;;5068319;28;20467;-63
2023/10/12 15:11:33;;;;;;;13.80;9.07;;;;;;;;;;5074754;28;20414;-64
2023/10/12 15:14:01;;;;;;;14.55;9.20;;;;;;;;;;5073176;28;20429;-63
2023/10/12 15:16:30;;;;;;;13.40;9.00;;;;;;;;;;5074687;28;20517;-62